sensor_id;sensor_type;location;lat;lon;timestamp;P1;durP1;ratioP1;P2;durP2;ratioP2
1725;SDS011;41776;48.260;8.928;2024-01-06T00:00:51;5.13;;;2.67;;
1725;SDS011;41776;48.260;8.928;2024-01-06T00:03:17;6.73;;;2.83;;
1725;SDS011;41776;48.260;8.928;2024-01-06T00:05:44;4.93;;;2.53;;
1725;SDS011;41776;48.260;8.928;2024-01-06T00:08:10;6.93;;;3.23;;
1725;SDS011;41776;48.260;8.928;2024-01-06T00:10:37;8.63;;;2.90;;
1725;SDS011;41776;48.260;8.928;2024-01-06T00:13:05;7.77;;;2.80;;
1725;SDS011;41776;48.260;8.928;2024-01-06T00:15:31;6.30;;;2.30;;
1725;SDS011;41776;48.260;8.928;2024-01-06T00:17:57;3.70;;;2.37;;
1725;SDS011;41776;48.260;8.928;2024-01-06T00:20:24;4.00;;;2.03;;
1725;SDS011;41776;48.260;8.928;2024-01-06T00:22:50;6.27;;;1.77;;
1725;SDS011;41776;48.260;8.928;2024-01-06T00:25:17;3.30;;;1.90;;
1725;SDS011;41776;48.260;8.928;2024-01-06T00:27:43;8.53;;;2.60;;
1725;SDS011;41776;48.260;8.928;2024-01-06T00:30:12;3.63;;;1.53;;
1725;SDS011;41776;48.260;8.928;2024-01-06T00:32:39;4.10;;;1.60;;
1725;SDS011;41776;48.260;8.928;2024-01-06T00:35:05;2.73;;;1.50;;
1725;SDS011;41776;48.260;8.928;2024-01-06T00:37:32;3.60;;;1.80;;
1725;SDS011;41776;48.260;8.928;2024-01-06T00:39:59;2.33;;;1.93;;
1725;SDS011;41776;48.260;8.928;2024-01-06T00:42:29;6.43;;;1.83;;
1725;SDS011;41776;48.260;8.928;2024-01-06T00:44:55;5.73;;;1.93;;
1725;SDS011;41776;48.260;8.928;2024-01-06T00:47:23;3.73;;;1.93;;
1725;SDS011;41776;48.260;8.928;2024-01-06T00:49:50;4.57;;;1.93;;
1725;SDS011;41776;48.260;8.928;2024-01-06T00:52:16;2.67;;;1.60;;
1725;SDS011;41776;48.260;8.928;2024-01-06T00:54:42;5.20;;;1.67;;
1725;SDS011;41776;48.260;8.928;2024-01-06T00:57:09;2.20;;;1.70;;
1725;SDS011;41776;48.260;8.928;2024-01-06T00:59:35;4.07;;;1.67;;
1725;SDS011;41776;48.260;8.928;2024-01-06T01:02:02;3.97;;;1.53;;
1725;SDS011;41776;48.260;8.928;2024-01-06T01:04:30;2.97;;;1.60;;
1725;SDS011;41776;48.260;8.928;2024-01-06T01:06:56;2.97;;;1.63;;
1725;SDS011;41776;48.260;8.928;2024-01-06T01:09:23;3.30;;;1.83;;
1725;SDS011;41776;48.260;8.928;2024-01-06T01:11:49;1.77;;;1.50;;
1725;SDS011;41776;48.260;8.928;2024-01-06T01:14:15;2.33;;;1.33;;
1725;SDS011;41776;48.260;8.928;2024-01-06T01:16:43;8.33;;;1.97;;
1725;SDS011;41776;48.260;8.928;2024-01-06T01:19:10;2.30;;;1.53;;
1725;SDS011;41776;48.260;8.928;2024-01-06T01:21:38;3.80;;;1.70;;
1725;SDS011;41776;48.260;8.928;2024-01-06T01:24:04;4.00;;;1.53;;
1725;SDS011;41776;48.260;8.928;2024-01-06T01:26:31;5.07;;;2.00;;
1725;SDS011;41776;48.260;8.928;2024-01-06T01:28:57;3.73;;;1.80;;
1725;SDS011;41776;48.260;8.928;2024-01-06T01:31:24;4.40;;;2.00;;
1725;SDS011;41776;48.260;8.928;2024-01-06T01:33:50;5.10;;;2.30;;
1725;SDS011;41776;48.260;8.928;2024-01-06T01:36:17;7.97;;;2.17;;
1725;SDS011;41776;48.260;8.928;2024-01-06T01:38:45;5.87;;;1.90;;
1725;SDS011;41776;48.260;8.928;2024-01-06T01:41:17;4.77;;;2.23;;
1725;SDS011;41776;48.260;8.928;2024-01-06T01:43:45;8.33;;;2.13;;
1725;SDS011;41776;48.260;8.928;2024-01-06T01:46:24;3.93;;;1.93;;
1725;SDS011;41776;48.260;8.928;2024-01-06T01:48:51;6.87;;;2.80;;
1725;SDS011;41776;48.260;8.928;2024-01-06T01:51:18;2.43;;;1.73;;
1725;SDS011;41776;48.260;8.928;2024-01-06T01:53:47;5.60;;;2.40;;
1725;SDS011;41776;48.260;8.928;2024-01-06T01:56:15;6.33;;;2.80;;
1725;SDS011;41776;48.260;8.928;2024-01-06T01:58:42;4.50;;;2.20;;
1725;SDS011;41776;48.260;8.928;2024-01-06T02:01:09;7.00;;;2.20;;
1725;SDS011;41776;48.260;8.928;2024-01-06T02:03:36;4.00;;;1.90;;
1725;SDS011;41776;48.260;8.928;2024-01-06T02:06:03;7.97;;;2.20;;
1725;SDS011;41776;48.260;8.928;2024-01-06T02:08:31;8.47;;;2.77;;
1725;SDS011;41776;48.260;8.928;2024-01-06T02:10:59;6.70;;;1.70;;
1725;SDS011;41776;48.260;8.928;2024-01-06T02:13:32;4.07;;;2.00;;
1725;SDS011;41776;48.260;8.928;2024-01-06T02:16:04;6.43;;;1.70;;
1725;SDS011;41776;48.260;8.928;2024-01-06T02:18:31;3.40;;;1.70;;
1725;SDS011;41776;48.260;8.928;2024-01-06T02:20:58;3.20;;;1.67;;
1725;SDS011;41776;48.260;8.928;2024-01-06T02:23:28;2.13;;;1.47;;
1725;SDS011;41776;48.260;8.928;2024-01-06T02:25:55;3.23;;;1.70;;
1725;SDS011;41776;48.260;8.928;2024-01-06T02:28:22;4.13;;;1.97;;
1725;SDS011;41776;48.260;8.928;2024-01-06T02:30:48;5.53;;;1.97;;
1725;SDS011;41776;48.260;8.928;2024-01-06T02:33:17;4.30;;;2.07;;
1725;SDS011;41776;48.260;8.928;2024-01-06T02:35:44;3.83;;;1.80;;
1725;SDS011;41776;48.260;8.928;2024-01-06T02:38:11;3.77;;;1.97;;
1725;SDS011;41776;48.260;8.928;2024-01-06T02:40:42;7.30;;;2.33;;
1725;SDS011;41776;48.260;8.928;2024-01-06T02:43:08;4.17;;;1.80;;
1725;SDS011;41776;48.260;8.928;2024-01-06T02:45:37;6.13;;;2.10;;
1725;SDS011;41776;48.260;8.928;2024-01-06T02:48:03;2.50;;;1.70;;
1725;SDS011;41776;48.260;8.928;2024-01-06T02:50:30;3.50;;;1.60;;
1725;SDS011;41776;48.260;8.928;2024-01-06T02:52:58;2.13;;;1.57;;
1725;SDS011;41776;48.260;8.928;2024-01-06T02:55:25;3.00;;;1.60;;
1725;SDS011;41776;48.260;8.928;2024-01-06T02:57:52;3.87;;;1.90;;
1725;SDS011;41776;48.260;8.928;2024-01-06T03:00:19;4.77;;;2.07;;
1725;SDS011;41776;48.260;8.928;2024-01-06T03:02:55;4.33;;;1.83;;
1725;SDS011;41776;48.260;8.928;2024-01-06T03:05:22;4.20;;;1.60;;
1725;SDS011;41776;48.260;8.928;2024-01-06T03:07:51;3.17;;;1.20;;
1725;SDS011;41776;48.260;8.928;2024-01-06T03:10:17;3.53;;;1.43;;
1725;SDS011;41776;48.260;8.928;2024-01-06T03:12:44;2.03;;;1.20;;
1725;SDS011;41776;48.260;8.928;2024-01-06T03:15:19;5.67;;;1.40;;
1725;SDS011;41776;48.260;8.928;2024-01-06T03:17:46;5.10;;;1.67;;
1725;SDS011;41776;48.260;8.928;2024-01-06T03:20:13;3.33;;;1.73;;
1725;SDS011;41776;48.260;8.928;2024-01-06T03:22:40;6.33;;;1.33;;
1725;SDS011;41776;48.260;8.928;2024-01-06T03:25:08;2.83;;;1.60;;
1725;SDS011;41776;48.260;8.928;2024-01-06T03:27:39;6.93;;;1.73;;
1725;SDS011;41776;48.260;8.928;2024-01-06T03:30:06;6.73;;;1.60;;
1725;SDS011;41776;48.260;8.928;2024-01-06T03:32:37;2.23;;;1.30;;
1725;SDS011;41776;48.260;8.928;2024-01-06T03:35:05;2.43;;;1.40;;
1725;SDS011;41776;48.260;8.928;2024-01-06T03:37:32;6.33;;;1.60;;
1725;SDS011;41776;48.260;8.928;2024-01-06T03:40:01;3.07;;;1.50;;
1725;SDS011;41776;48.260;8.928;2024-01-06T03:42:30;6.83;;;1.80;;
1725;SDS011;41776;48.260;8.928;2024-01-06T03:44:59;3.60;;;1.60;;
1725;SDS011;41776;48.260;8.928;2024-01-06T03:47:26;11.13;;;2.33;;
1725;SDS011;41776;48.260;8.928;2024-01-06T03:49:54;11.03;;;2.63;;
1725;SDS011;41776;48.260;8.928;2024-01-06T03:52:20;5.87;;;1.43;;
1725;SDS011;41776;48.260;8.928;2024-01-06T03:54:49;4.63;;;1.60;;
1725;SDS011;41776;48.260;8.928;2024-01-06T03:57:16;2.43;;;1.47;;
1725;SDS011;41776;48.260;8.928;2024-01-06T03:59:42;9.90;;;2.10;;
1725;SDS011;41776;48.260;8.928;2024-01-06T04:02:10;4.87;;;1.43;;
1725;SDS011;41776;48.260;8.928;2024-01-06T04:04:39;5.90;;;2.10;;
1725;SDS011;41776;48.260;8.928;2024-01-06T04:07:08;3.70;;;1.43;;
1725;SDS011;41776;48.260;8.928;2024-01-06T04:09:34;3.37;;;1.70;;
1725;SDS011;41776;48.260;8.928;2024-01-06T04:12:01;3.03;;;1.93;;
1725;SDS011;41776;48.260;8.928;2024-01-06T04:14:28;1.87;;;1.60;;
1725;SDS011;41776;48.260;8.928;2024-01-06T04:16:54;3.83;;;1.90;;
1725;SDS011;41776;48.260;8.928;2024-01-06T04:19:21;6.23;;;1.60;;
1725;SDS011;41776;48.260;8.928;2024-01-06T04:21:48;4.30;;;1.87;;
1725;SDS011;41776;48.260;8.928;2024-01-06T04:24:18;3.40;;;1.73;;
1725;SDS011;41776;48.260;8.928;2024-01-06T04:26:47;4.60;;;1.73;;
1725;SDS011;41776;48.260;8.928;2024-01-06T04:29:16;6.40;;;2.00;;
1725;SDS011;41776;48.260;8.928;2024-01-06T04:31:42;6.13;;;1.87;;
1725;SDS011;41776;48.260;8.928;2024-01-06T04:34:11;3.47;;;1.60;;
1725;SDS011;41776;48.260;8.928;2024-01-06T04:36:37;4.50;;;2.00;;
1725;SDS011;41776;48.260;8.928;2024-01-06T04:39:08;9.73;;;1.80;;
1725;SDS011;41776;48.260;8.928;2024-01-06T04:41:39;8.10;;;2.10;;
1725;SDS011;41776;48.260;8.928;2024-01-06T04:44:05;5.57;;;2.10;;
1725;SDS011;41776;48.260;8.928;2024-01-06T04:46:38;5.40;;;1.80;;
1725;SDS011;41776;48.260;8.928;2024-01-06T04:49:06;2.90;;;2.10;;
1725;SDS011;41776;48.260;8.928;2024-01-06T04:51:36;6.07;;;1.70;;
1725;SDS011;41776;48.260;8.928;2024-01-06T04:54:05;2.53;;;1.43;;
1725;SDS011;41776;48.260;8.928;2024-01-06T04:56:32;3.57;;;2.00;;
1725;SDS011;41776;48.260;8.928;2024-01-06T04:59:06;6.17;;;1.57;;
1725;SDS011;41776;48.260;8.928;2024-01-06T05:01:32;5.27;;;2.07;;
1725;SDS011;41776;48.260;8.928;2024-01-06T05:03:59;4.70;;;2.20;;
1725;SDS011;41776;48.260;8.928;2024-01-06T05:06:26;4.30;;;1.90;;
1725;SDS011;41776;48.260;8.928;2024-01-06T05:08:52;3.80;;;1.80;;
1725;SDS011;41776;48.260;8.928;2024-01-06T05:11:19;4.17;;;2.17;;
1725;SDS011;41776;48.260;8.928;2024-01-06T05:13:45;4.83;;;1.97;;
1725;SDS011;41776;48.260;8.928;2024-01-06T05:16:19;6.63;;;1.73;;
1725;SDS011;41776;48.260;8.928;2024-01-06T05:18:46;3.10;;;1.63;;
1725;SDS011;41776;48.260;8.928;2024-01-06T05:21:17;6.40;;;2.13;;
1725;SDS011;41776;48.260;8.928;2024-01-06T05:23:44;6.23;;;2.13;;
1725;SDS011;41776;48.260;8.928;2024-01-06T05:26:10;6.73;;;2.23;;
1725;SDS011;41776;48.260;8.928;2024-01-06T05:28:40;4.03;;;1.87;;
1725;SDS011;41776;48.260;8.928;2024-01-06T05:31:11;6.23;;;2.00;;
1725;SDS011;41776;48.260;8.928;2024-01-06T05:33:39;6.77;;;1.83;;
1725;SDS011;41776;48.260;8.928;2024-01-06T05:36:06;3.00;;;1.90;;
1725;SDS011;41776;48.260;8.928;2024-01-06T05:38:37;5.40;;;2.20;;
1725;SDS011;41776;48.260;8.928;2024-01-06T05:41:04;4.67;;;1.83;;
1725;SDS011;41776;48.260;8.928;2024-01-06T05:43:31;5.00;;;1.80;;
1725;SDS011;41776;48.260;8.928;2024-01-06T05:45:58;9.00;;;1.80;;
1725;SDS011;41776;48.260;8.928;2024-01-06T05:48:25;4.83;;;2.10;;
1725;SDS011;41776;48.260;8.928;2024-01-06T05:50:57;10.13;;;2.57;;
1725;SDS011;41776;48.260;8.928;2024-01-06T05:53:29;7.43;;;2.10;;
1725;SDS011;41776;48.260;8.928;2024-01-06T05:55:56;4.50;;;2.03;;
1725;SDS011;41776;48.260;8.928;2024-01-06T05:58:23;3.87;;;1.90;;
1725;SDS011;41776;48.260;8.928;2024-01-06T06:00:53;4.83;;;1.80;;
1725;SDS011;41776;48.260;8.928;2024-01-06T06:03:19;7.87;;;2.70;;
1725;SDS011;41776;48.260;8.928;2024-01-06T06:05:46;6.30;;;1.97;;
1725;SDS011;41776;48.260;8.928;2024-01-06T06:08:20;5.93;;;2.13;;
1725;SDS011;41776;48.260;8.928;2024-01-06T06:10:46;5.70;;;2.33;;
1725;SDS011;41776;48.260;8.928;2024-01-06T06:13:26;6.87;;;2.20;;
1725;SDS011;41776;48.260;8.928;2024-01-06T06:15:52;3.47;;;1.77;;
1725;SDS011;41776;48.260;8.928;2024-01-06T06:18:19;9.47;;;2.00;;
1725;SDS011;41776;48.260;8.928;2024-01-06T06:20:46;10.27;;;2.27;;
1725;SDS011;41776;48.260;8.928;2024-01-06T06:23:14;3.90;;;2.30;;
1725;SDS011;41776;48.260;8.928;2024-01-06T06:25:42;4.70;;;2.00;;
1725;SDS011;41776;48.260;8.928;2024-01-06T06:28:13;2.73;;;1.80;;
1725;SDS011;41776;48.260;8.928;2024-01-06T06:30:40;10.97;;;2.47;;
1725;SDS011;41776;48.260;8.928;2024-01-06T06:33:11;5.13;;;1.90;;
1725;SDS011;41776;48.260;8.928;2024-01-06T06:35:42;6.97;;;2.37;;
1725;SDS011;41776;48.260;8.928;2024-01-06T06:38:08;7.73;;;2.67;;
1725;SDS011;41776;48.260;8.928;2024-01-06T06:40:37;8.03;;;2.67;;
1725;SDS011;41776;48.260;8.928;2024-01-06T06:43:07;10.83;;;3.43;;
1725;SDS011;41776;48.260;8.928;2024-01-06T06:45:34;9.87;;;3.10;;
1725;SDS011;41776;48.260;8.928;2024-01-06T06:48:00;8.10;;;2.50;;
1725;SDS011;41776;48.260;8.928;2024-01-06T06:50:31;10.23;;;2.37;;
1725;SDS011;41776;48.260;8.928;2024-01-06T06:53:00;7.57;;;2.00;;
1725;SDS011;41776;48.260;8.928;2024-01-06T06:55:34;5.50;;;1.93;;
1725;SDS011;41776;48.260;8.928;2024-01-06T06:58:07;3.87;;;1.83;;
1725;SDS011;41776;48.260;8.928;2024-01-06T07:00:43;6.27;;;2.17;;
1725;SDS011;41776;48.260;8.928;2024-01-06T07:03:12;5.80;;;2.17;;
1725;SDS011;41776;48.260;8.928;2024-01-06T07:05:43;5.87;;;1.60;;
1725;SDS011;41776;48.260;8.928;2024-01-06T07:08:12;4.03;;;1.80;;
1725;SDS011;41776;48.260;8.928;2024-01-06T07:10:41;9.47;;;1.83;;
1725;SDS011;41776;48.260;8.928;2024-01-06T07:13:16;4.87;;;1.57;;
1725;SDS011;41776;48.260;8.928;2024-01-06T07:15:44;7.17;;;1.93;;
1725;SDS011;41776;48.260;8.928;2024-01-06T07:18:13;6.20;;;1.90;;
1725;SDS011;41776;48.260;8.928;2024-01-06T07:20:42;3.17;;;1.80;;
1725;SDS011;41776;48.260;8.928;2024-01-06T07:23:11;4.30;;;1.90;;
1725;SDS011;41776;48.260;8.928;2024-01-06T07:25:40;2.07;;;1.40;;
1725;SDS011;41776;48.260;8.928;2024-01-06T07:28:09;3.30;;;1.87;;
1725;SDS011;41776;48.260;8.928;2024-01-06T07:30:36;6.93;;;1.83;;
1725;SDS011;41776;48.260;8.928;2024-01-06T07:33:04;2.73;;;1.40;;
1725;SDS011;41776;48.260;8.928;2024-01-06T07:35:31;4.00;;;2.10;;
1725;SDS011;41776;48.260;8.928;2024-01-06T07:37:59;5.47;;;2.70;;
1725;SDS011;41776;48.260;8.928;2024-01-06T07:40:25;2.97;;;1.87;;
1725;SDS011;41776;48.260;8.928;2024-01-06T07:42:52;8.80;;;2.97;;
1725;SDS011;41776;48.260;8.928;2024-01-06T07:45:18;8.50;;;3.03;;
1725;SDS011;41776;48.260;8.928;2024-01-06T07:47:48;9.17;;;3.20;;
1725;SDS011;41776;48.260;8.928;2024-01-06T07:50:18;7.83;;;3.13;;
1725;SDS011;41776;48.260;8.928;2024-01-06T07:52:44;8.90;;;3.33;;
1725;SDS011;41776;48.260;8.928;2024-01-06T07:55:11;7.50;;;3.13;;
1725;SDS011;41776;48.260;8.928;2024-01-06T07:57:41;11.30;;;3.10;;
1725;SDS011;41776;48.260;8.928;2024-01-06T08:00:09;15.83;;;5.30;;
1725;SDS011;41776;48.260;8.928;2024-01-06T08:02:39;54.67;;;18.80;;
1725;SDS011;41776;48.260;8.928;2024-01-06T08:05:07;59.57;;;19.47;;
1725;SDS011;41776;48.260;8.928;2024-01-06T08:07:40;42.00;;;15.33;;
1725;SDS011;41776;48.260;8.928;2024-01-06T08:10:07;48.60;;;20.13;;
1725;SDS011;41776;48.260;8.928;2024-01-06T08:12:38;27.33;;;11.00;;
1725;SDS011;41776;48.260;8.928;2024-01-06T08:15:05;12.77;;;6.13;;
1725;SDS011;41776;48.260;8.928;2024-01-06T08:17:33;8.63;;;3.73;;
1725;SDS011;41776;48.260;8.928;2024-01-06T08:20:00;10.17;;;3.57;;
1725;SDS011;41776;48.260;8.928;2024-01-06T08:22:28;9.20;;;4.00;;
1725;SDS011;41776;48.260;8.928;2024-01-06T08:24:54;9.20;;;4.67;;
1725;SDS011;41776;48.260;8.928;2024-01-06T08:27:21;12.13;;;5.20;;
1725;SDS011;41776;48.260;8.928;2024-01-06T08:29:48;28.50;;;10.63;;
1725;SDS011;41776;48.260;8.928;2024-01-06T08:32:16;19.43;;;6.87;;
1725;SDS011;41776;48.260;8.928;2024-01-06T08:34:44;10.27;;;3.90;;
1725;SDS011;41776;48.260;8.928;2024-01-06T08:37:11;9.67;;;3.10;;
1725;SDS011;41776;48.260;8.928;2024-01-06T08:39:39;6.00;;;2.60;;
1725;SDS011;41776;48.260;8.928;2024-01-06T08:42:06;5.53;;;1.97;;
1725;SDS011;41776;48.260;8.928;2024-01-06T08:44:35;7.20;;;2.30;;
1725;SDS011;41776;48.260;8.928;2024-01-06T08:47:06;5.40;;;3.20;;
1725;SDS011;41776;48.260;8.928;2024-01-06T08:49:33;12.00;;;3.63;;
1725;SDS011;41776;48.260;8.928;2024-01-06T08:52:00;6.73;;;3.40;;
1725;SDS011;41776;48.260;8.928;2024-01-06T08:54:28;7.30;;;2.23;;
1725;SDS011;41776;48.260;8.928;2024-01-06T08:56:56;5.33;;;1.60;;
1725;SDS011;41776;48.260;8.928;2024-01-06T08:59:22;6.53;;;2.07;;
1725;SDS011;41776;48.260;8.928;2024-01-06T09:01:49;4.83;;;1.90;;
1725;SDS011;41776;48.260;8.928;2024-01-06T09:04:15;2.90;;;1.77;;
1725;SDS011;41776;48.260;8.928;2024-01-06T09:06:42;4.67;;;1.67;;
1725;SDS011;41776;48.260;8.928;2024-01-06T09:09:10;2.90;;;1.67;;
1725;SDS011;41776;48.260;8.928;2024-01-06T09:11:39;6.07;;;1.80;;
1725;SDS011;41776;48.260;8.928;2024-01-06T09:14:08;5.50;;;1.90;;
1725;SDS011;41776;48.260;8.928;2024-01-06T09:16:35;4.93;;;1.83;;
1725;SDS011;41776;48.260;8.928;2024-01-06T09:19:02;4.63;;;1.90;;
1725;SDS011;41776;48.260;8.928;2024-01-06T09:21:28;5.50;;;1.90;;
1725;SDS011;41776;48.260;8.928;2024-01-06T09:23:55;6.50;;;2.20;;
1725;SDS011;41776;48.260;8.928;2024-01-06T09:26:21;3.43;;;1.67;;
1725;SDS011;41776;48.260;8.928;2024-01-06T09:28:48;6.07;;;1.90;;
1725;SDS011;41776;48.260;8.928;2024-01-06T09:31:16;5.53;;;2.07;;
1725;SDS011;41776;48.260;8.928;2024-01-06T09:33:42;3.73;;;1.90;;
1725;SDS011;41776;48.260;8.928;2024-01-06T09:36:09;3.27;;;1.87;;
1725;SDS011;41776;48.260;8.928;2024-01-06T09:38:37;7.13;;;2.10;;
1725;SDS011;41776;48.260;8.928;2024-01-06T09:41:03;6.70;;;2.10;;
1725;SDS011;41776;48.260;8.928;2024-01-06T09:43:30;3.67;;;1.90;;
1725;SDS011;41776;48.260;8.928;2024-01-06T09:46:02;6.23;;;2.13;;
1725;SDS011;41776;48.260;8.928;2024-01-06T09:48:35;4.97;;;2.33;;
1725;SDS011;41776;48.260;8.928;2024-01-06T09:51:06;4.13;;;1.80;;
1725;SDS011;41776;48.260;8.928;2024-01-06T09:53:38;5.63;;;2.13;;
1725;SDS011;41776;48.260;8.928;2024-01-06T09:56:13;6.13;;;1.97;;
1725;SDS011;41776;48.260;8.928;2024-01-06T09:58:41;2.93;;;1.83;;
1725;SDS011;41776;48.260;8.928;2024-01-06T10:01:09;3.77;;;2.17;;
1725;SDS011;41776;48.260;8.928;2024-01-06T10:03:38;4.13;;;1.73;;
1725;SDS011;41776;48.260;8.928;2024-01-06T10:06:04;4.80;;;1.50;;
1725;SDS011;41776;48.260;8.928;2024-01-06T10:08:32;3.90;;;1.73;;
1725;SDS011;41776;48.260;8.928;2024-01-06T10:11:00;9.90;;;2.50;;
1725;SDS011;41776;48.260;8.928;2024-01-06T10:13:29;6.70;;;2.03;;
1725;SDS011;41776;48.260;8.928;2024-01-06T10:15:56;5.57;;;2.23;;
1725;SDS011;41776;48.260;8.928;2024-01-06T10:18:22;10.93;;;2.57;;
1725;SDS011;41776;48.260;8.928;2024-01-06T10:20:52;6.63;;;2.97;;
1725;SDS011;41776;48.260;8.928;2024-01-06T10:23:20;7.93;;;2.20;;
1725;SDS011;41776;48.260;8.928;2024-01-06T10:25:48;2.80;;;1.70;;
1725;SDS011;41776;48.260;8.928;2024-01-06T10:28:18;1.73;;;1.10;;
1725;SDS011;41776;48.260;8.928;2024-01-06T10:30:44;2.43;;;1.53;;
1725;SDS011;41776;48.260;8.928;2024-01-06T10:33:11;3.13;;;1.53;;
1725;SDS011;41776;48.260;8.928;2024-01-06T10:35:38;4.63;;;1.67;;
1725;SDS011;41776;48.260;8.928;2024-01-06T10:38:07;3.07;;;1.33;;
1725;SDS011;41776;48.260;8.928;2024-01-06T10:40:34;3.83;;;1.47;;
1725;SDS011;41776;48.260;8.928;2024-01-06T10:43:00;7.10;;;2.20;;
1725;SDS011;41776;48.260;8.928;2024-01-06T10:45:28;3.13;;;1.40;;
1725;SDS011;41776;48.260;8.928;2024-01-06T10:47:57;4.67;;;1.40;;
1725;SDS011;41776;48.260;8.928;2024-01-06T10:50:25;7.10;;;1.83;;
1725;SDS011;41776;48.260;8.928;2024-01-06T10:52:55;5.10;;;1.50;;
1725;SDS011;41776;48.260;8.928;2024-01-06T10:55:23;6.43;;;1.70;;
1725;SDS011;41776;48.260;8.928;2024-01-06T10:57:55;2.30;;;1.77;;
1725;SDS011;41776;48.260;8.928;2024-01-06T11:00:22;4.80;;;1.80;;
1725;SDS011;41776;48.260;8.928;2024-01-06T11:02:49;3.57;;;1.70;;
1725;SDS011;41776;48.260;8.928;2024-01-06T11:05:18;2.43;;;1.70;;
1725;SDS011;41776;48.260;8.928;2024-01-06T11:07:46;4.30;;;1.73;;
1725;SDS011;41776;48.260;8.928;2024-01-06T11:10:16;3.67;;;1.50;;
1725;SDS011;41776;48.260;8.928;2024-01-06T11:12:46;3.33;;;1.57;;
1725;SDS011;41776;48.260;8.928;2024-01-06T11:15:38;4.80;;;1.53;;
1725;SDS011;41776;48.260;8.928;2024-01-06T11:18:05;4.97;;;1.50;;
1725;SDS011;41776;48.260;8.928;2024-01-06T11:20:33;1.67;;;1.33;;
1725;SDS011;41776;48.260;8.928;2024-01-06T11:25:46;1.90;;;1.37;;
1725;SDS011;41776;48.260;8.928;2024-01-06T11:28:16;3.43;;;1.10;;
1725;SDS011;41776;48.260;8.928;2024-01-06T11:30:45;2.43;;;1.27;;
1725;SDS011;41776;48.260;8.928;2024-01-06T11:33:15;1.73;;;1.10;;
1725;SDS011;41776;48.260;8.928;2024-01-06T11:35:41;1.63;;;1.23;;
1725;SDS011;41776;48.260;8.928;2024-01-06T11:38:14;1.40;;;1.20;;
1725;SDS011;41776;48.260;8.928;2024-01-06T11:40:43;2.17;;;1.47;;
1725;SDS011;41776;48.260;8.928;2024-01-06T11:43:10;7.90;;;1.37;;
1725;SDS011;41776;48.260;8.928;2024-01-06T11:45:39;1.03;;;0.90;;
1725;SDS011;41776;48.260;8.928;2024-01-06T11:48:08;3.00;;;1.10;;
1725;SDS011;41776;48.260;8.928;2024-01-06T11:50:40;0.97;;;0.80;;
1725;SDS011;41776;48.260;8.928;2024-01-06T11:53:09;2.97;;;1.23;;
1725;SDS011;41776;48.260;8.928;2024-01-06T11:55:38;2.27;;;1.00;;
1725;SDS011;41776;48.260;8.928;2024-01-06T11:58:04;3.90;;;1.60;;
1725;SDS011;41776;48.260;8.928;2024-01-06T12:00:32;1.43;;;1.00;;
1725;SDS011;41776;48.260;8.928;2024-01-06T12:03:05;4.27;;;1.30;;
1725;SDS011;41776;48.260;8.928;2024-01-06T12:05:33;3.70;;;1.00;;
1725;SDS011;41776;48.260;8.928;2024-01-06T12:08:03;6.90;;;1.23;;
1725;SDS011;41776;48.260;8.928;2024-01-06T12:10:31;1.30;;;1.00;;
1725;SDS011;41776;48.260;8.928;2024-01-06T12:12:59;1.50;;;1.27;;
1725;SDS011;41776;48.260;8.928;2024-01-06T12:15:30;3.60;;;1.20;;
1725;SDS011;41776;48.260;8.928;2024-01-06T12:17:57;3.27;;;1.03;;
1725;SDS011;41776;48.260;8.928;2024-01-06T12:20:26;1.43;;;1.10;;
1725;SDS011;41776;48.260;8.928;2024-01-06T12:22:54;1.43;;;1.00;;
1725;SDS011;41776;48.260;8.928;2024-01-06T12:25:21;3.63;;;1.30;;
1725;SDS011;41776;48.260;8.928;2024-01-06T12:27:48;3.57;;;1.30;;
1725;SDS011;41776;48.260;8.928;2024-01-06T12:30:21;1.93;;;1.20;;
1725;SDS011;41776;48.260;8.928;2024-01-06T12:32:51;3.53;;;1.40;;
1725;SDS011;41776;48.260;8.928;2024-01-06T12:35:21;5.13;;;1.27;;
1725;SDS011;41776;48.260;8.928;2024-01-06T12:37:50;2.50;;;1.20;;
1725;SDS011;41776;48.260;8.928;2024-01-06T12:40:20;3.17;;;1.10;;
1725;SDS011;41776;48.260;8.928;2024-01-06T12:42:48;1.57;;;1.10;;
1725;SDS011;41776;48.260;8.928;2024-01-06T12:45:14;2.00;;;1.33;;
1725;SDS011;41776;48.260;8.928;2024-01-06T12:47:41;1.47;;;1.10;;
1725;SDS011;41776;48.260;8.928;2024-01-06T12:50:08;2.10;;;1.00;;
1725;SDS011;41776;48.260;8.928;2024-01-06T12:52:35;1.50;;;1.03;;
1725;SDS011;41776;48.260;8.928;2024-01-06T12:55:05;3.63;;;1.10;;
1725;SDS011;41776;48.260;8.928;2024-01-06T12:57:33;2.07;;;1.10;;
1725;SDS011;41776;48.260;8.928;2024-01-06T13:00:01;2.60;;;1.10;;
1725;SDS011;41776;48.260;8.928;2024-01-06T13:02:30;1.37;;;1.03;;
1725;SDS011;41776;48.260;8.928;2024-01-06T13:04:57;1.00;;;0.90;;
1725;SDS011;41776;48.260;8.928;2024-01-06T13:07:24;2.27;;;1.50;;
1725;SDS011;41776;48.260;8.928;2024-01-06T13:09:50;1.80;;;1.13;;
1725;SDS011;41776;48.260;8.928;2024-01-06T13:12:18;3.07;;;1.07;;
1725;SDS011;41776;48.260;8.928;2024-01-06T13:14:45;1.70;;;1.00;;
1725;SDS011;41776;48.260;8.928;2024-01-06T13:17:12;1.97;;;0.80;;
1725;SDS011;41776;48.260;8.928;2024-01-06T13:19:39;1.13;;;0.90;;
1725;SDS011;41776;48.260;8.928;2024-01-06T13:22:11;1.20;;;1.10;;
1725;SDS011;41776;48.260;8.928;2024-01-06T13:24:38;1.10;;;1.00;;
1725;SDS011;41776;48.260;8.928;2024-01-06T13:27:08;1.93;;;1.10;;
1725;SDS011;41776;48.260;8.928;2024-01-06T13:29:39;3.90;;;1.00;;
1725;SDS011;41776;48.260;8.928;2024-01-06T13:32:09;2.00;;;0.90;;
1725;SDS011;41776;48.260;8.928;2024-01-06T13:34:36;1.23;;;1.00;;
1725;SDS011;41776;48.260;8.928;2024-01-06T13:37:07;2.10;;;0.93;;
1725;SDS011;41776;48.260;8.928;2024-01-06T13:39:34;0.80;;;0.80;;
1725;SDS011;41776;48.260;8.928;2024-01-06T13:42:01;2.07;;;0.83;;
1725;SDS011;41776;48.260;8.928;2024-01-06T13:44:28;0.77;;;0.77;;
1725;SDS011;41776;48.260;8.928;2024-01-06T13:46:56;0.77;;;0.77;;
1725;SDS011;41776;48.260;8.928;2024-01-06T13:49:26;0.73;;;0.73;;
1725;SDS011;41776;48.260;8.928;2024-01-06T13:51:53;1.07;;;0.80;;
1725;SDS011;41776;48.260;8.928;2024-01-06T13:54:20;1.00;;;1.00;;
1725;SDS011;41776;48.260;8.928;2024-01-06T13:56:46;1.70;;;0.80;;
1725;SDS011;41776;48.260;8.928;2024-01-06T13:59:13;1.10;;;1.00;;
1725;SDS011;41776;48.260;8.928;2024-01-06T14:01:40;0.70;;;0.70;;
1725;SDS011;41776;48.260;8.928;2024-01-06T14:04:10;1.03;;;0.90;;
1725;SDS011;41776;48.260;8.928;2024-01-06T14:06:38;1.13;;;1.00;;
1725;SDS011;41776;48.260;8.928;2024-01-06T14:09:06;1.77;;;1.47;;
1725;SDS011;41776;48.260;8.928;2024-01-06T14:11:33;7.47;;;3.70;;
1725;SDS011;41776;48.260;8.928;2024-01-06T14:14:02;7.37;;;3.37;;
1725;SDS011;41776;48.260;8.928;2024-01-06T14:16:30;6.07;;;2.70;;
1725;SDS011;41776;48.260;8.928;2024-01-06T14:18:57;3.53;;;1.73;;
1725;SDS011;41776;48.260;8.928;2024-01-06T14:21:25;2.73;;;1.47;;
1725;SDS011;41776;48.260;8.928;2024-01-06T14:23:53;2.20;;;1.30;;
1725;SDS011;41776;48.260;8.928;2024-01-06T14:26:19;2.20;;;1.60;;
1725;SDS011;41776;48.260;8.928;2024-01-06T14:28:46;4.37;;;2.23;;
1725;SDS011;41776;48.260;8.928;2024-01-06T14:31:13;2.27;;;1.57;;
1725;SDS011;41776;48.260;8.928;2024-01-06T14:33:47;4.93;;;1.90;;
1725;SDS011;41776;48.260;8.928;2024-01-06T14:36:16;1.63;;;1.30;;
1725;SDS011;41776;48.260;8.928;2024-01-06T14:38:45;1.03;;;0.93;;
1725;SDS011;41776;48.260;8.928;2024-01-06T14:41:13;1.20;;;1.07;;
1725;SDS011;41776;48.260;8.928;2024-01-06T14:43:39;1.80;;;1.00;;
1725;SDS011;41776;48.260;8.928;2024-01-06T14:46:06;1.80;;;1.03;;
1725;SDS011;41776;48.260;8.928;2024-01-06T14:48:32;0.90;;;0.90;;
1725;SDS011;41776;48.260;8.928;2024-01-06T14:51:03;1.60;;;0.80;;
1725;SDS011;41776;48.260;8.928;2024-01-06T14:53:37;1.30;;;1.03;;
1725;SDS011;41776;48.260;8.928;2024-01-06T14:56:05;2.00;;;1.23;;
1725;SDS011;41776;48.260;8.928;2024-01-06T14:58:35;0.93;;;0.90;;
1725;SDS011;41776;48.260;8.928;2024-01-06T15:01:01;2.60;;;0.97;;
1725;SDS011;41776;48.260;8.928;2024-01-06T15:03:30;3.50;;;0.83;;
1725;SDS011;41776;48.260;8.928;2024-01-06T15:05:58;1.33;;;0.90;;
1725;SDS011;41776;48.260;8.928;2024-01-06T15:08:24;0.93;;;0.93;;